Amado Nervo National Airport
MMEP : now visible

Aeroporto :











RITROVATECI SU...

 
LOGIN :

Iscrizione | Disclaimer

   EN    FR    IT 

 









Sommario :    VFR   VFR Marginale   IFR   IFR Intensivo   IFR Molto Intensivo
Visibilità : 
Base nubi : 
>= 8 km
>= 3000ft
5 / 8 km
1000 / 3000 ft
1500m / 5 km
500 / 1000 ft
800 / 1500m
200 / 500 ft
< 800m
< 200 ft
Simboli :   Temporali  Nebbia  Neve Forte  Precipitazioni Forti  Vento > 20 kt






- Altitudine del aeroporto : 3020 ft
- Codice IATA : TPQ


MMEP - Amado Nervo National

METARs OBSOLETI :
  • 280240Z 01006KT 5SM FEW020 18/15 A3014 RMK SLP202 52012 927 8/500

TAF TAF MMEP
Valido dal 27 a 18 ore il 28 a 18 ore UTC


271637Z 2718/2818 00000KT P6SM SKC
FM280000 00000KT 5SM HZ SCT010
FM280300 00000KT 1SM BR OVC005
TEMPO 2810/2814 1SM BR BKN003
FM281500 00000KT 3SM HZ SCT010



MetMap, La meteo Aeronautica in un colpo d'occhio ! - Copyright ORBIFLY Dicembre 2007 - Disclaimer

ORBIFLY MET'MAP TEAM :

Programmazione e sviluppo : Alexandra Zaïnal
Concezione : Baudouin d'Aumeries
Aiuto per la programmazione : Marc-Olivier Méhu
Supporto tecnico e logistico : Manuel Goepfert
Aiuto per la traduzione : Arnaldo La Scala

Contatto : metmap@orbifly.com




FONTI E CREDITI :

   NOAA       Earth
Advisory